Time;durP1;ratioP1;P1;durP2;ratioP2;P2;SDS_P1;SDS_P2;PMS_P1;PMS_P2;Temp;Humidity;BMP_temperature;BMP_pressure;BME280_temperature;BME280_humidity;BME280_pressure;Samples;Min_cycle;Max_cycle;Signal;HPM_P1;HPM_P2
2022/10/11 00:00:52;;;;;;;10.75;2.75;;;15.90;99.90;;;;;;4994489;28;20026;-84
2022/10/11 00:03:19;;;;;;;7.70;3.47;;;15.90;99.90;;;;;;5010371;28;20033;-84
2022/10/11 00:05:45;;;;;;;6.88;2.17;;;15.90;99.90;;;;;;5012013;28;20037;-84
2022/10/11 00:08:12;;;;;;;9.73;2.40;;;15.90;99.90;;;;;;5012295;28;20029;-84
2022/10/11 00:10:39;;;;;;;5.70;2.40;;;15.90;99.90;;;;;;5012064;28;20378;-84
2022/10/11 00:13:05;;;;;;;6.45;3.05;;;15.90;99.90;;;;;;5011437;28;20026;-84
2022/10/11 00:15:31;;;;;;;9.38;2.50;;;15.80;99.90;;;;;;5011801;28;20037;-84
2022/10/11 00:17:57;;;;;;;4.93;2.95;;;15.90;99.90;;;;;;5012217;28;20037;-84
2022/10/11 00:20:23;;;;;;;7.55;3.20;;;15.80;99.90;;;;;;5012261;28;20116;-84
2022/10/11 00:22:49;;;;;;;7.63;2.47;;;15.80;99.90;;;;;;5010598;28;20112;-84
2022/10/11 00:25:15;;;;;;;4.72;2.20;;;15.70;99.90;;;;;;5011820;28;20484;-85
2022/10/11 00:27:41;;;;;;;4.68;2.58;;;15.70;99.90;;;;;;5024407;28;20030;-84
2022/10/11 00:30:08;;;;;;;4.55;2.00;;;15.70;99.90;;;;;;5014408;28;20038;-84
2022/10/11 00:32:37;;;;;;;6.53;2.40;;;15.60;99.90;;;;;;5011926;28;20595;-84
2022/10/11 00:35:06;;;;;;;4.20;2.33;;;15.60;99.90;;;;;;5011415;28;20096;-84
2022/10/11 00:37:33;;;;;;;6.88;2.85;;;15.60;99.90;;;;;;5011740;28;20092;-85
2022/10/11 00:39:59;;;;;;;4.93;2.67;;;15.60;99.90;;;;;;5010728;28;20045;-85
2022/10/11 00:42:25;;;;;;;6.55;2.78;;;15.60;99.90;;;;;;5011819;28;20033;-84
2022/10/11 00:45:11;;;;;;;3.78;2.38;;;15.60;99.90;;;;;;5010376;28;20088;-84
2022/10/11 00:47:37;;;;;;;9.35;2.92;;;15.60;99.90;;;;;;5011392;28;20048;-84
2022/10/11 00:50:03;;;;;;;4.00;2.08;;;15.50;99.90;;;;;;5011034;28;20087;-85
2022/10/11 00:52:39;;;;;;;18.90;3.60;;;15.50;99.90;;;;;;5010314;28;20490;-84
2022/10/11 00:55:15;;;;;;;9.55;4.43;;;15.50;99.90;;;;;;5010553;28;20405;-84
2022/10/11 00:57:48;;;;;;;6.22;3.03;;;15.50;99.90;;;;;;4994479;28;20026;-84
2022/10/11 01:00:15;;;;;;;5.95;2.90;;;15.50;99.90;;;;;;4994646;28;20401;-84
2022/10/11 01:02:42;;;;;;;8.85;3.22;;;15.50;99.90;;;;;;5009666;28;20034;-84
2022/10/11 01:05:12;;;;;;;7.70;3.42;;;15.40;99.90;;;;;;5009284;28;20061;-84
2022/10/11 01:07:38;;;;;;;3.67;2.03;;;15.40;99.90;;;;;;5008589;28;20050;-84
2022/10/11 01:10:04;;;;;;;10.15;3.03;;;15.40;99.90;;;;;;5011628;28;20507;-84
2022/10/11 01:12:31;;;;;;;6.60;3.03;;;15.40;99.90;;;;;;5012281;28;20113;-84
2022/10/11 01:15:10;;;;;;;5.43;2.78;;;15.30;99.90;;;;;;5015892;28;20034;-84
2022/10/11 01:18:00;;;;;;;6.22;3.25;;;15.30;99.90;;;;;;5030771;28;20033;-84
2022/10/11 01:21:04;;;;;;;4.65;1.92;;;15.20;99.90;;;;;;5030668;28;20044;-84
2022/10/11 01:24:08;;;;;;;11.00;3.15;;;15.10;99.90;;;;;;5026886;28;20292;-84
2022/10/11 01:27:35;;;;;;;5.68;3.17;;;15.20;99.90;;;;;;5010743;28;20042;-84
2022/10/11 01:30:34;;;;;;;5.30;2.95;;;15.10;99.90;;;;;;4995199;28;20085;-84
2022/10/11 01:33:44;;;;;;;8.15;3.35;;;15.00;99.90;;;;;;5027124;28;20604;-83
2022/10/11 01:36:47;;;;;;;6.78;3.20;;;14.90;99.90;;;;;;5015445;28;20551;-82
2022/10/11 01:40:13;;;;;;;10.25;4.30;;;14.90;99.90;;;;;;4995479;28;20453;-83
2022/10/11 01:42:40;;;;;;;21.42;4.20;;;14.90;99.90;;;;;;4995500;28;20046;-83
2022/10/11 01:45:14;;;;;;;13.18;3.90;;;14.90;99.90;;;;;;4990107;28;20038;-83
2022/10/11 01:47:41;;;;;;;12.48;5.18;;;14.90;99.90;;;;;;4989632;28;20030;-83
2022/10/11 01:50:51;;;;;;;20.20;4.72;;;14.90;99.90;;;;;;4991027;28;20805;-83
2022/10/11 01:53:45;;;;;;;8.48;3.38;;;14.80;99.90;;;;;;4990698;28;20049;-83
2022/10/11 01:56:30;;;;;;;7.35;3.58;;;14.70;99.90;;;;;;4979715;28;20031;-83
2022/10/11 01:59:32;;;;;;;14.13;3.88;;;14.70;99.90;;;;;;4994270;28;20045;-83
2022/10/11 02:02:20;;;;;;;;;;;14.70;99.90;;;;;;4994652;28;20069;-83
2022/10/11 02:05:08;;;;;;;11.43;3.38;;;14.70;99.90;;;;;;4994465;28;19909;-82
2022/10/11 02:07:55;;;;;;;8.75;4.18;;;14.60;99.90;;;;;;4994207;28;20058;-82
2022/10/11 02:10:39;;;;;;;14.13;3.67;;;14.70;99.90;;;;;;5000051;23;20050;-82
2022/10/11 02:13:15;;;;;;;17.08;4.40;;;14.60;99.90;;;;;;4984816;28;20433;-82
2022/10/11 02:15:43;;;;;;;7.60;3.30;;;14.70;99.90;;;;;;4977353;28;20482;-82
2022/10/11 02:18:17;;;;;;;8.75;4.75;;;14.60;99.90;;;;;;4980682;28;20034;-82
2022/10/11 02:20:44;;;;;;;9.48;4.57;;;14.70;99.90;;;;;;4984305;28;20030;-82
2022/10/11 02:23:19;;;;;;;6.43;3.10;;;14.70;99.90;;;;;;4992304;28;20041;-83
2022/10/11 02:25:46;;;;;;;10.02;4.40;;;14.60;99.90;;;;;;4992758;28;20230;-82
2022/10/11 02:28:19;;;;;;;11.50;4.93;;;14.60;99.90;;;;;;4993661;28;20027;-83
2022/10/11 02:30:48;;;;;;;9.68;5.05;;;14.60;99.90;;;;;;4992575;28;20041;-83
2022/10/11 02:33:20;;;;;;;8.45;4.82;;;14.50;99.90;;;;;;4993529;28;20425;-83
2022/10/11 02:35:53;;;;;;;18.55;4.90;;;14.50;99.90;;;;;;4992664;28;20054;-83
2022/10/11 02:38:28;;;;;;;11.27;5.07;;;14.50;99.90;;;;;;4992433;28;20030;-82
2022/10/11 02:41:09;;;;;;;11.68;5.43;;;14.40;99.90;;;;;;4992512;28;20034;-83
2022/10/11 02:43:46;;;;;;;9.75;5.80;;;14.30;99.90;;;;;;4992145;28;20031;-83
2022/10/11 02:46:13;;;;;;;20.48;6.70;;;14.30;99.90;;;;;;4988761;28;20038;-83
2022/10/11 02:48:38;;;;;;;10.43;5.65;;;14.30;99.90;;;;;;4972733;28;20482;-83
2022/10/11 02:51:04;;;;;;;12.05;5.88;;;14.20;99.90;;;;;;4974238;28;20085;-83
2022/10/11 02:53:30;;;;;;;12.02;5.90;;;14.20;99.90;;;;;;4972332;28;20081;-83
2022/10/11 02:55:56;;;;;;;20.58;7.65;;;14.20;99.90;;;;;;4972952;28;20031;-83
2022/10/11 02:58:23;;;;;;;17.08;6.68;;;14.20;99.90;;;;;;4972776;28;20498;-83
2022/10/11 03:00:49;;;;;;;13.93;6.72;;;14.20;99.90;;;;;;4973033;28;20027;-83
2022/10/11 03:03:15;;;;;;;12.27;5.25;;;14.20;99.90;;;;;;4972386;28;20525;-83
2022/10/11 03:05:41;;;;;;;10.80;5.50;;;14.10;99.90;;;;;;4972319;28;20026;-83
2022/10/11 03:08:08;;;;;;;17.02;6.80;;;14.10;99.90;;;;;;4990087;28;20041;-83
2022/10/11 03:10:36;;;;;;;14.70;6.97;;;14.10;99.90;;;;;;4990733;28;20095;-83
2022/10/11 03:13:02;;;;;;;16.35;6.82;;;14.10;99.90;;;;;;4971769;28;20035;-83
2022/10/11 03:15:28;;;;;;;14.65;6.07;;;14.00;99.90;;;;;;4983088;28;20026;-84
2022/10/11 03:17:55;;;;;;;14.80;7.07;;;14.00;99.90;;;;;;4992920;28;20470;-83
2022/10/11 03:20:21;;;;;;;8.88;6.00;;;14.00;99.90;;;;;;4980453;28;20613;-83
2022/10/11 03:22:46;;;;;;;23.17;6.72;;;14.00;99.90;;;;;;4956548;28;20117;-85
2022/10/11 03:25:12;;;;;;;15.70;6.50;;;13.90;99.90;;;;;;4974019;28;20034;-84
2022/10/11 03:27:39;;;;;;;11.38;5.70;;;13.80;99.90;;;;;;4973201;28;20058;-84
2022/10/11 03:30:07;;;;;;;17.55;6.03;;;13.80;99.90;;;;;;4973596;28;20058;-85
2022/10/11 03:32:33;;;;;;;13.77;5.40;;;13.70;99.90;;;;;;4971922;28;20023;-82
2022/10/11 03:34:59;;;;;;;15.43;4.88;;;13.60;99.90;;;;;;4974688;28;20121;-84
2022/10/11 03:37:25;;;;;;;15.18;4.28;;;13.70;99.90;;;;;;4985913;28;20530;-85
2022/10/11 03:39:51;;;;;;;15.32;5.00;;;13.60;99.90;;;;;;4992241;28;20507;-85
2022/10/11 03:42:16;;;;;;;9.18;4.72;;;13.50;99.90;;;;;;4993547;28;20030;-85
2022/10/11 03:44:42;;;;;;;9.77;3.63;;;13.40;99.90;;;;;;4993803;28;20041;-85
2022/10/11 03:47:08;;;;;;;8.70;4.20;;;13.40;99.90;;;;;;4992059;28;20093;-85
2022/10/11 03:49:34;;;;;;;7.68;3.90;;;13.30;99.90;;;;;;4937234;28;20046;-85
2022/10/11 03:52:00;;;;;;;9.57;4.22;;;13.30;99.90;;;;;;4986539;28;20038;-84
2022/10/11 03:54:25;;;;;;;11.77;4.00;;;13.30;99.90;;;;;;4972267;28;20022;-84
2022/10/11 03:56:51;;;;;;;6.10;2.63;;;13.20;99.90;;;;;;4972870;28;20070;-82
2022/10/11 03:59:17;;;;;;;5.70;1.90;;;13.20;99.90;;;;;;4970281;28;20452;-83
2022/10/11 04:01:43;;;;;;;10.30;3.70;;;13.10;99.90;;;;;;4972248;28;20090;-83
2022/10/11 04:04:09;;;;;;;9.00;2.78;;;13.00;99.90;;;;;;4972308;28;20113;-77
2022/10/11 04:06:34;;;;;;;4.68;2.13;;;13.00;99.90;;;;;;4946805;28;20039;-84
2022/10/11 04:09:00;;;;;;;4.03;2.35;;;13.00;99.90;;;;;;4972333;28;20041;-83
2022/10/11 04:11:27;;;;;;;10.30;2.55;;;12.90;99.90;;;;;;4982502;28;20492;-84
2022/10/11 04:13:52;;;;;;;4.65;1.95;;;12.90;99.90;;;;;;4962029;28;20141;-84
2022/10/11 04:16:18;;;;;;;13.77;2.95;;;12.90;99.90;;;;;;4983620;28;20105;-86
2022/10/11 04:18:44;;;;;;;13.40;2.20;;;12.90;99.90;;;;;;4979496;28;20462;-86
2022/10/11 04:21:09;;;;;;;9.43;1.40;;;12.80;99.90;;;;;;4979794;28;20031;-82
2022/10/11 04:23:35;;;;;;;6.63;2.20;;;12.60;99.90;;;;;;4972335;28;20435;-77
2022/10/11 04:26:05;;;;;;;2.20;1.25;;;12.60;99.90;;;;;;4972019;28;20034;-82
2022/10/11 04:28:31;;;;;;;8.20;2.20;;;12.60;99.90;;;;;;4972150;28;20030;-84
2022/10/11 04:30:57;;;;;;;4.25;1.60;;;12.50;99.90;;;;;;4972142;28;20034;-82
2022/10/11 04:33:24;;;;;;;9.40;2.33;;;12.50;99.90;;;;;;4972321;28;20031;-84
2022/10/11 04:35:55;;;;;;;1.75;1.05;;;12.40;99.90;;;;;;4971249;28;20027;-85
2022/10/11 04:38:22;;;;;;;2.97;1.13;;;12.40;99.90;;;;;;4971000;28;20513;-82
2022/10/11 04:40:47;;;;;;;2.40;1.33;;;12.30;99.90;;;;;;4971588;28;20034;-82
2022/10/11 04:43:15;;;;;;;4.88;1.65;;;12.20;99.90;;;;;;4971532;28;20038;-82
2022/10/11 04:45:42;;;;;;;4.63;1.70;;;12.20;99.90;;;;;;4970428;28;20108;-81
2022/10/11 04:48:08;;;;;;;8.25;1.40;;;12.20;99.90;;;;;;4971801;28;20375;-82
2022/10/11 04:50:34;;;;;;;7.35;1.33;;;12.10;99.90;;;;;;4971445;28;20348;-82
2022/10/11 04:53:00;;;;;;;5.07;1.48;;;12.10;99.90;;;;;;4971738;28;20026;-84
2022/10/11 04:55:27;;;;;;;2.83;1.33;;;12.00;99.90;;;;;;4971905;28;20030;-85
2022/10/11 04:57:53;;;;;;;1.83;1.00;;;12.00;99.90;;;;;;4972858;28;20383;-86
2022/10/11 05:00:19;;;;;;;2.10;1.33;;;11.90;99.90;;;;;;4972834;28;20035;-86
2022/10/11 05:02:45;;;;;;;1.40;1.02;;;11.90;99.90;;;;;;4972250;28;20031;-81
2022/10/11 05:05:16;;;;;;;4.70;1.73;;;11.80;99.90;;;;;;4972038;28;20035;-81
2022/10/11 05:07:42;;;;;;;2.70;0.98;;;11.70;99.90;;;;;;4972954;28;20035;-82
2022/10/11 05:10:08;;;;;;;6.75;1.10;;;11.70;99.90;;;;;;4974326;28;20031;-80
2022/10/11 05:12:34;;;;;;;11.57;1.80;;;11.60;99.90;;;;;;4990719;28;20478;-76
2022/10/11 05:15:00;;;;;;;5.07;1.58;;;11.70;99.90;;;;;;4978123;28;20050;-81
2022/10/11 05:17:26;;;;;;;4.60;1.92;;;11.60;99.90;;;;;;4982882;28;20041;-77
2022/10/11 05:19:57;;;;;;;13.23;1.33;;;11.60;99.90;;;;;;4980942;28;20027;-80
2022/10/11 05:22:23;;;;;;;;;;;11.60;99.90;;;;;;4976348;28;20116;-75
2022/10/11 05:24:49;;;;;;;2.47;0.90;;;11.60;99.90;;;;;;4990719;28;20005;-76
2022/10/11 05:27:14;;;;;;;3.92;2.67;;;11.60;99.90;;;;;;4990829;28;20042;-74
2022/10/11 05:29:40;;;;;;;2.50;1.05;;;11.60;99.90;;;;;;4991348;28;20465;-86
2022/10/11 05:32:06;;;;;;;4.80;1.17;;;11.50;99.90;;;;;;4994417;28;20030;-80
2022/10/11 05:34:31;;;;;;;1.35;0.65;;;11.50;99.90;;;;;;4989633;28;20063;-88
2022/10/11 05:36:57;;;;;;;4.65;0.88;;;11.40;99.90;;;;;;4959856;28;20033;-91
2022/10/11 05:39:23;;;;;;;5.25;1.00;;;11.40;99.90;;;;;;4977476;28;20038;-90
2022/10/11 06:35:05;;;;;;;3.10;0.40;;;10.80;99.90;;;;;;4992382;28;20061;-82
2022/10/11 06:37:31;;;;;;;9.32;1.13;;;10.80;99.90;;;;;;4994040;28;20482;-82
2022/10/11 06:39:56;;;;;;;3.88;1.77;;;10.80;99.90;;;;;;4997657;28;20041;-82
2022/10/11 06:42:22;;;;;;;9.77;1.48;;;10.80;99.90;;;;;;5013203;28;20066;-82
2022/10/11 06:44:48;;;;;;;6.90;0.80;;;10.80;99.90;;;;;;5013268;28;20037;-81
2022/10/11 06:47:13;;;;;;;7.30;1.42;;;10.90;99.90;;;;;;5013372;28;20041;-82
2022/10/11 06:49:39;;;;;;;1.45;0.57;;;10.90;99.90;;;;;;5015096;28;20092;-85
2022/10/11 06:52:05;;;;;;;5.70;0.93;;;10.90;99.90;;;;;;5015756;28;20025;-84
2022/10/11 06:54:30;;;;;;;2.63;0.82;;;11.00;99.90;;;;;;5016157;28;20026;-87
2022/10/11 06:56:56;;;;;;;3.17;0.90;;;11.00;99.90;;;;;;5014204;28;20030;-84
2022/10/11 06:59:22;;;;;;;5.07;0.90;;;11.00;99.90;;;;;;5013273;28;20061;-82
2022/10/11 07:01:47;;;;;;;2.85;0.95;;;11.00;99.90;;;;;;5013079;28;20030;-82
2022/10/11 07:04:13;;;;;;;6.97;1.23;;;11.20;99.90;;;;;;5023128;28;20029;-83
2022/10/11 07:06:40;;;;;;;4.90;1.30;;;11.30;99.90;;;;;;5019046;28;20504;-82
2022/10/11 07:09:07;;;;;;;4.75;1.23;;;11.30;99.90;;;;;;5015082;28;20462;-81
2022/10/11 07:11:34;;;;;;;9.23;2.08;;;11.30;99.90;;;;;;5000238;28;20502;-82
2022/10/11 07:14:06;;;;;;;2.40;0.70;;;11.40;99.90;;;;;;4993085;28;20475;-83
2022/10/11 07:16:36;;;;;;;2.65;0.77;;;11.40;99.90;;;;;;4992451;28;20045;-82
2022/10/11 07:19:04;;;;;;;9.18;0.90;;;11.40;99.90;;;;;;4992155;28;20174;-81
2022/10/11 07:21:32;;;;;;;3.13;0.85;;;11.50;99.90;;;;;;4991876;28;20113;-79
2022/10/11 07:23:59;;;;;;;14.88;1.90;;;11.60;99.90;;;;;;4994267;28;20034;-79
2022/10/11 07:26:26;;;;;;;17.77;1.42;;;11.60;99.90;;;;;;5012239;28;20512;-81
2022/10/11 07:28:52;;;;;;;1.05;0.50;;;11.50;99.90;;;;;;5012066;28;20103;-80
2022/10/11 07:31:22;;;;;;;4.40;1.05;;;11.50;99.90;;;;;;5012111;28;20104;-80
2022/10/11 07:33:48;;;;;;;7.45;0.45;;;11.60;99.90;;;;;;5011716;28;20427;-81
2022/10/11 07:36:13;;;;;;;10.85;1.25;;;11.70;99.90;;;;;;4994524;28;20129;-81
2022/10/11 07:38:41;;;;;;;1.45;0.90;;;11.70;99.90;;;;;;5011771;28;20478;-83
2022/10/11 07:41:08;;;;;;;3.17;1.25;;;11.70;99.90;;;;;;5011920;28;20053;-80
2022/10/11 07:43:36;;;;;;;1.85;1.13;;;11.80;99.90;;;;;;4993843;28;20126;-80
2022/10/11 07:46:05;;;;;;;28.58;2.70;;;11.80;99.90;;;;;;4994189;28;20032;-80
2022/10/11 07:48:33;;;;;;;5.45;1.58;;;11.80;99.90;;;;;;5011439;28;20092;-81
2022/10/11 07:51:14;;;;;;;6.68;0.73;;;11.80;99.90;;;;;;5008292;28;20028;-80
2022/10/11 07:53:52;;;;;;;0.95;0.60;;;11.90;99.90;;;;;;4987390;28;20088;-83
2022/10/11 07:56:26;;;;;;;12.15;2.53;;;11.80;99.90;;;;;;5011458;28;20120;-82
2022/10/11 07:58:56;;;;;;;1.45;0.57;;;11.80;99.90;;;;;;4994179;28;20042;-83
2022/10/11 08:01:22;;;;;;;5.03;0.93;;;11.90;99.90;;;;;;5011658;28;20030;-81
2022/10/11 08:03:49;;;;;;;12.25;1.45;;;11.90;99.90;;;;;;4993595;28;20044;-80
2022/10/11 08:06:20;;;;;;;3.75;1.38;;;11.90;99.90;;;;;;5011558;28;20034;-83
2022/10/11 08:08:47;;;;;;;3.80;1.27;;;12.00;99.90;;;;;;5011391;28;20030;-79
2022/10/11 08:11:32;;;;;;;4.03;1.60;;;12.00;99.90;;;;;;5034477;23;20057;-68
2022/10/11 08:13:59;;;;;;;11.55;1.27;;;12.00;99.90;;;;;;5025030;28;20033;-67
2022/10/11 08:16:25;;;;;;;9.98;1.55;;;12.10;99.90;;;;;;5016685;28;20029;-65
2022/10/11 08:18:53;;;;;;;2.55;0.80;;;12.10;99.90;;;;;;5032779;28;20025;-67
2022/10/11 08:21:19;;;;;;;0.60;0.50;;;12.20;99.90;;;;;;5041148;28;20087;-67
2022/10/11 08:23:45;;;;;;;0.75;0.47;;;12.20;99.90;;;;;;5030404;28;20079;-67
2022/10/11 08:26:11;;;;;;;3.88;1.02;;;12.30;99.90;;;;;;5030998;28;20037;-67
2022/10/11 08:28:37;;;;;;;2.65;0.80;;;12.40;99.90;;;;;;5012831;28;20061;-67
2022/10/11 08:31:03;;;;;;;6.30;1.67;;;12.50;99.90;;;;;;5030696;28;20104;-67
2022/10/11 08:33:29;;;;;;;1.15;0.60;;;12.70;99.90;;;;;;5012577;28;20025;-68
2022/10/11 08:35:56;;;;;;;2.63;1.00;;;12.80;99.90;;;;;;5030805;28;20090;-68
2022/10/11 08:38:22;;;;;;;2.10;0.82;;;12.90;99.90;;;;;;5012576;28;20029;-71
2022/10/11 08:40:54;;;;;;;4.68;1.42;;;13.00;99.90;;;;;;5012785;28;20493;-67
2022/10/11 08:44:00;;;;;;;1.48;0.73;;;13.20;99.90;;;;;;4996637;28;20117;-68
2022/10/11 08:46:30;;;;;;;5.00;1.10;;;13.20;99.90;;;;;;5013068;28;20033;-68
2022/10/11 08:48:58;;;;;;;3.08;1.08;;;13.40;99.90;;;;;;5013108;28;20026;-68
2022/10/11 08:51:41;;;;;;;4.97;1.00;;;13.20;99.90;;;;;;5030558;28;20140;-67
2022/10/11 08:54:53;;;;;;;3.65;0.47;;;13.30;99.90;;;;;;4997554;28;20030;-68
2022/10/11 08:57:24;;;;;;;2.78;0.77;;;13.40;99.90;;;;;;5030633;28;20037;-68
2022/10/11 08:59:56;;;;;;;5.80;1.23;;;13.40;99.90;;;;;;5013117;28;20030;-67
2022/10/11 09:02:34;;;;;;;7.82;0.88;;;13.60;99.90;;;;;;5013030;28;20052;-67
2022/10/11 09:05:01;;;;;;;4.20;0.98;;;13.50;99.90;;;;;;5032651;28;20057;-67
2022/10/11 09:08:17;;;;;;;8.00;1.38;;;13.60;99.90;;;;;;5034556;28;20033;-68
2022/10/11 09:11:07;;;;;;;9.10;1.05;;;13.60;99.90;;;;;;5012756;28;20394;-65
2022/10/11 09:13:50;;;;;;;8.87;1.07;;;13.70;99.90;;;;;;5014305;28;20037;-65
2022/10/11 09:16:51;;;;;;;5.15;1.10;;;13.70;99.90;;;;;;4998465;28;20485;-65
2022/10/11 09:19:30;;;;;;;4.32;1.00;;;13.70;99.90;;;;;;4999025;28;20052;-64
2022/10/11 09:22:38;;;;;;;10.13;1.08;;;13.70;99.90;;;;;;4996757;28;20040;-68
2022/10/11 09:25:29;;;;;;;3.97;1.15;;;13.80;99.90;;;;;;4983845;28;20421;-66
2022/10/11 09:28:36;;;;;;;13.57;0.95;;;14.10;99.90;;;;;;4997457;28;20034;-66
2022/10/11 09:31:02;;;;;;;6.97;0.77;;;14.20;99.90;;;;;;4998337;28;20049;-66
2022/10/11 09:33:44;;;;;;;6.03;0.98;;;14.50;99.90;;;;;;4996351;28;20137;-70
2022/10/11 09:36:48;;;;;;;2.60;0.75;;;14.40;99.90;;;;;;5014349;28;20053;-67
2022/10/11 09:39:34;;;;;;;11.30;1.77;;;14.80;99.90;;;;;;5003175;28;20029;-67
2022/10/11 09:42:05;;;;;;;5.20;0.90;;;14.90;99.90;;;;;;5012922;28;20030;-69
2022/10/11 09:44:45;;;;;;;10.82;1.40;;;14.90;99.90;;;;;;5012333;28;20033;-67
2022/10/11 09:47:32;;;;;;;2.72;0.90;;;14.90;99.90;;;;;;5015886;28;20025;-67
2022/10/11 09:50:05;;;;;;;4.97;1.10;;;14.80;99.90;;;;;;5033774;28;20044;-68
2022/10/11 09:52:32;;;;;;;7.53;1.23;;;15.00;99.90;;;;;;5033066;28;20142;-68
2022/10/11 09:55:01;;;;;;;13.50;1.05;;;15.30;99.90;;;;;;5033393;28;20029;-67
2022/10/11 09:57:38;;;;;;;1.10;0.90;;;15.10;99.90;;;;;;5033653;28;20505;-67
2022/10/11 10:00:22;;;;;;;5.07;0.90;;;15.30;99.90;;;;;;5016130;28;20040;-67
2022/10/11 10:02:54;;;;;;;3.15;0.90;;;15.00;99.90;;;;;;5033010;28;20041;-66
2022/10/11 10:05:36;;;;;;;5.55;1.05;;;15.10;99.90;;;;;;5022333;28;20034;-67
2022/10/11 10:08:08;;;;;;;7.10;1.10;;;15.00;99.90;;;;;;5015463;28;20025;-67
2022/10/11 10:11:13;;;;;;;4.43;1.27;;;15.20;99.90;;;;;;5037121;28;20043;-66
2022/10/11 10:13:53;;;;;;;1.23;0.52;;;15.40;99.90;;;;;;5009143;28;20065;-65
2022/10/11 10:16:31;;;;;;;1.20;0.70;;;15.50;99.90;;;;;;4995125;28;20025;-65
2022/10/11 10:18:59;;;;;;;2.83;1.20;;;15.80;99.90;;;;;;4994805;28;20037;-65
2022/10/11 10:21:47;;;;;;;1.98;0.73;;;16.00;99.90;;;;;;4995073;28;20105;-66
2022/10/11 10:24:39;;;;;;;7.97;1.67;;;16.00;99.90;;;;;;5007593;28;20034;-65
2022/10/11 10:27:28;;;;;;;2.78;1.02;;;16.10;99.90;;;;;;4995289;28;20046;-65
2022/10/11 10:30:14;;;;;;;3.00;1.08;;;16.20;99.90;;;;;;5007713;28;20029;-67
2022/10/11 10:33:02;;;;;;;7.50;1.40;;;16.70;99.90;;;;;;5032433;28;20025;-66
2022/10/11 10:35:47;;;;;;;3.08;1.23;;;16.80;99.90;;;;;;5026254;28;20033;-67
2022/10/11 10:38:32;;;;;;;1.33;0.88;;;16.90;99.90;;;;;;5013070;28;20116;-67
2022/10/11 10:41:13;;;;;;;2.55;1.35;;;16.90;99.90;;;;;;5011241;28;20509;-67
2022/10/11 10:43:42;;;;;;;3.80;1.02;;;16.90;99.90;;;;;;4994751;28;20042;-66
2022/10/11 10:46:39;;;;;;;5.00;0.63;;;17.40;99.90;;;;;;5014534;28;20393;-66
2022/10/11 10:49:28;;;;;;;3.33;0.95;;;17.60;99.90;;;;;;5011398;28;20518;-66
2022/10/11 10:52:14;;;;;;;3.20;0.95;;;17.80;99.90;;;;;;5012322;28;20482;-66
2022/10/11 10:55:19;;;;;;;12.57;1.40;;;18.00;99.90;;;;;;5012121;28;20073;-67
2022/10/11 10:57:56;;;;;;;3.80;1.05;;;18.10;99.90;;;;;;5012247;28;20389;-66
2022/10/11 11:00:23;;;;;;;2.83;1.15;;;18.20;99.90;;;;;;5030576;28;20059;-66
2022/10/11 11:03:04;;;;;;;10.73;1.23;;;18.90;99.90;;;;;;5013791;28;20029;-66
2022/10/11 11:06:14;;;;;;;5.72;1.23;;;19.50;99.90;;;;;;5014312;28;20032;-66
2022/10/11 11:08:40;;;;;;;4.18;1.42;;;20.90;99.90;;;;;;5014977;28;20037;-67
2022/10/11 11:11:32;;;;;;;2.25;0.70;;;22.60;98.00;;;;;;5031497;28;20034;-58
2022/10/11 11:14:43;;;;;;;2.00;0.60;;;22.30;97.40;;;;;;5040634;28;20087;-58
2022/10/11 11:17:39;;;;;;;2.40;0.85;;;23.50;95.00;;;;;;5040473;28;20385;-57
2022/10/11 11:20:46;;;;;;;5.30;1.30;;;23.90;93.80;;;;;;5051257;28;20049;-56
2022/10/11 11:24:25;;;;;;;3.30;0.88;;;24.60;93.30;;;;;;5025683;28;20612;-56
2022/10/11 11:27:24;;;;;;;2.90;1.00;;;25.60;91.00;;;;;;4995780;28;20474;-56
2022/10/11 11:30:10;;;;;;;5.80;1.15;;;26.80;87.60;;;;;;4976999;28;20041;-55
2022/10/11 11:32:58;;;;;;;7.32;0.90;;;24.00;90.70;;;;;;5030917;28;20504;-56
2022/10/11 11:35:53;;;;;;;7.00;0.85;;;23.30;92.70;;;;;;5013678;28;20432;-55
2022/10/11 11:38:47;;;;;;;2.83;0.65;;;24.80;90.30;;;;;;5027107;28;20045;-55
2022/10/11 11:41:33;;;;;;;4.65;0.95;;;26.40;88.20;;;;;;5016185;28;20033;-75
2022/10/11 11:44:15;;;;;;;6.70;0.70;;;26.10;84.50;;;;;;5014057;28;20038;-75
2022/10/11 11:46:52;;;;;;;0.47;0.40;;;25.40;88.20;;;;;;5029221;28;20041;-75
2022/10/11 11:49:34;;;;;;;6.53;0.75;;;26.70;84.00;;;;;;4993933;28;20490;-76
2022/10/11 11:52:04;;;;;;;1.15;0.40;;;27.00;82.10;;;;;;5010112;28;20127;-75
2022/10/11 11:55:04;;;;;;;1.25;0.75;;;25.20;83.10;;;;;;5029597;28;20171;-75
2022/10/11 11:57:49;;;;;;;11.63;1.07;;;23.40;87.70;;;;;;5029978;28;20033;-75
2022/10/11 12:01:03;;;;;;;1.67;0.52;;;25.50;85.20;;;;;;5030118;28;20079;-75
2022/10/11 12:03:40;;;;;;;6.10;1.27;;;23.80;87.80;;;;;;5005314;28;20041;-54
2022/10/11 12:06:28;;;;;;;6.13;0.70;;;26.20;83.80;;;;;;5013204;28;20091;-55
2022/10/11 12:09:16;;;;;;;3.00;0.60;;;27.40;81.70;;;;;;5014457;28;20072;-54
2022/10/11 12:11:48;;;;;;;5.82;0.70;;;26.80;80.90;;;;;;5030510;28;20821;-54
2022/10/11 12:14:32;;;;;;;3.08;0.65;;;26.20;80.30;;;;;;5015577;28;20148;-53
2022/10/11 12:17:22;;;;;;;4.68;1.02;;;25.40;83.50;;;;;;5030533;28;20104;-57
2022/10/11 12:20:25;;;;;;;3.05;0.47;;;26.60;80.40;;;;;;5029387;28;20033;-57
2022/10/11 12:22:57;;;;;;;3.97;0.57;;;26.90;79.80;;;;;;5024661;28;20046;-56
2022/10/11 12:25:25;;;;;;;4.78;1.10;;;26.80;79.40;;;;;;5030233;28;20053;-56
2022/10/11 12:28:37;;;;;;;5.85;0.82;;;25.90;80.90;;;;;;5030163;28;20524;-55
2022/10/11 12:31:17;;;;;;;4.13;1.10;;;26.30;81.20;;;;;;5030159;28;20033;-54
2022/10/11 12:33:45;;;;;;;4.60;0.90;;;26.80;79.40;;;;;;4996519;28;20037;-57
2022/10/11 12:36:37;;;;;;;3.25;0.50;;;26.30;80.50;;;;;;5030216;28;20032;-56
2022/10/11 12:39:18;;;;;;;6.22;1.00;;;27.20;79.20;;;;;;5030056;28;20045;-59
2022/10/11 12:41:50;;;;;;;;;;;27.70;76.50;;;;;;5030627;28;20037;-54
2022/10/11 12:44:29;;;;;;;4.00;0.57;;;24.80;80.20;;;;;;5029994;28;20439;-59
2022/10/11 12:46:56;;;;;;;2.08;0.57;;;25.30;83.00;;;;;;5012383;28;20143;-58
2022/10/11 12:50:04;;;;;;;4.13;0.52;;;26.80;79.50;;;;;;5010820;28;20573;-58
2022/10/11 12:52:47;;;;;;;3.50;1.15;;;26.90;77.70;;;;;;5011990;28;20037;-66
2022/10/11 12:55:59;;;;;;;8.32;0.77;;;26.90;78.30;;;;;;5014183;28;20037;-66
2022/10/11 12:58:40;;;;;;;1.65;0.60;;;26.60;77.80;;;;;;5016191;28;20032;-66
2022/10/11 13:01:16;;;;;;;2.55;0.65;;;24.40;78.90;;;;;;5013214;28;20037;-67
2022/10/11 13:04:07;;;;;;;3.90;0.75;;;24.30;81.90;;;;;;5030064;28;20489;-66
2022/10/11 13:06:55;;;;;;;11.63;2.53;;;25.20;80.30;;;;;;5012833;28;20053;-68
2022/10/11 13:09:37;;;;;;;10.55;1.30;;;23.80;83.30;;;;;;5029845;28;20021;-64
2022/10/11 13:12:19;;;;;;;9.00;1.20;;;24.20;83.70;;;;;;5012472;28;20056;-65
2022/10/11 13:14:56;;;;;;;3.85;0.65;;;24.30;82.60;;;;;;5012593;28;20032;-66
2022/10/11 13:17:32;;;;;;;8.25;0.65;;;24.00;83.10;;;;;;5013551;28;20087;-67
2022/10/11 13:20:20;;;;;;;6.60;1.00;;;24.40;80.70;;;;;;5012635;28;20037;-66
2022/10/11 13:22:53;;;;;;;4.57;0.43;;;23.50;84.80;;;;;;5028695;28;20037;-67
2022/10/11 13:25:24;;;;;;;4.35;0.80;;;24.20;83.80;;;;;;5030410;28;20029;-66
2022/10/11 13:27:53;;;;;;;2.20;0.40;;;24.50;81.00;;;;;;5012616;28;20102;-66
2022/10/11 13:30:33;;;;;;;4.15;0.40;;;24.70;80.30;;;;;;5012267;28;20141;-69
2022/10/11 13:33:04;;;;;;;1.10;0.50;;;24.40;80.50;;;;;;5010754;28;20033;-64
2022/10/11 13:35:37;;;;;;;4.50;1.45;;;23.40;83.30;;;;;;5013108;28;20053;-65
2022/10/11 13:38:06;;;;;;;4.28;0.65;;;23.60;81.90;;;;;;5012323;28;20071;-65
2022/10/11 13:40:33;;;;;;;6.72;0.70;;;23.80;83.50;;;;;;5012250;28;20103;-67
2022/10/11 13:42:59;;;;;;;3.40;0.50;;;24.50;81.80;;;;;;5011694;28;20045;-64
2022/10/11 13:45:29;;;;;;;4.43;0.57;;;22.50;85.80;;;;;;5012172;28;20492;-65
2022/10/11 13:47:55;;;;;;;4.90;0.50;;;23.70;84.20;;;;;;5010838;28;20022;-64
2022/10/11 13:50:34;;;;;;;6.20;0.77;;;23.50;82.20;;;;;;5009768;28;20040;-63
2022/10/11 13:53:19;;;;;;;1.30;0.77;;;23.80;82.80;;;;;;5016001;28;20044;-65
2022/10/11 13:55:58;;;;;;;3.47;0.50;;;24.90;82.20;;;;;;5018146;28;20036;-64
2022/10/11 13:58:43;;;;;;;4.47;1.05;;;25.70;80.00;;;;;;5015786;28;20060;-62
2022/10/11 14:01:36;;;;;;;3.55;0.60;;;25.60;79.70;;;;;;5033254;28;20662;-62
2022/10/11 14:04:07;;;;;;;4.97;0.73;;;25.60;79.40;;;;;;5015225;28;20116;-62
2022/10/11 14:06:58;;;;;;;1.55;0.55;;;26.30;79.00;;;;;;5015979;28;20057;-62
2022/10/11 14:09:50;;;;;;;3.67;1.20;;;25.50;79.70;;;;;;5033217;28;20061;-66
2022/10/11 14:12:35;;;;;;;5.45;0.60;;;24.60;81.30;;;;;;5027792;28;20038;-64
2022/10/11 14:15:30;;;;;;;2.53;0.60;;;24.50;81.60;;;;;;5015953;28;20060;-65
2022/10/11 14:17:58;;;;;;;4.22;0.60;;;23.90;82.70;;;;;;5033001;28;20025;-68
2022/10/11 14:20:39;;;;;;;8.23;1.80;;;23.30;85.10;;;;;;5015501;28;20021;-68
2022/10/11 14:23:06;;;;;;;14.50;4.15;;;23.10;85.10;;;;;;5014439;28;20034;-68